createdAt,value
2023-03-04T00:01:09.800Z,60.02
2023-03-04T00:03:38.483Z,60.11
2023-03-04T00:06:07.741Z,60.29
2023-03-04T00:08:36.261Z,60.15
2023-03-04T00:11:05.142Z,59.77
2023-03-04T00:13:33.878Z,60.03
2023-03-04T00:16:03.752Z,59.45
2023-03-04T00:18:32.345Z,59.96
2023-03-04T00:21:00.815Z,60.02
2023-03-04T00:23:29.185Z,60.11
2023-03-04T00:25:57.632Z,59.80
2023-03-04T00:28:26.098Z,60.59
2023-03-04T00:30:54.712Z,60.55
2023-03-04T00:33:24.490Z,60.30
2023-03-04T00:35:53.357Z,59.59
2023-03-04T00:38:21.836Z,60.25
2023-03-04T00:40:50.322Z,59.71
2023-03-04T00:43:18.747Z,60.03
2023-03-04T00:45:47.182Z,59.96
2023-03-04T00:48:16.552Z,59.82
2023-03-04T00:50:46.356Z,59.85
2023-03-04T00:53:16.074Z,58.59
2023-03-04T00:55:45.112Z,59.00
2023-03-04T00:58:13.422Z,59.34
2023-03-04T01:00:41.937Z,59.17
2023-03-04T01:03:10.368Z,59.24
2023-03-04T01:05:38.890Z,59.23
2023-03-04T01:08:08.829Z,59.68
2023-03-04T01:10:37.237Z,59.40
2023-03-04T01:13:06.053Z,59.13
2023-03-04T01:15:35.485Z,58.69
2023-03-04T01:18:03.915Z,58.66
2023-03-04T01:20:32.336Z,59.04
2023-03-04T01:23:00.736Z,58.42
2023-03-04T01:25:30.604Z,58.20
2023-03-04T01:28:00.481Z,58.04
2023-03-04T01:30:28.948Z,58.07
2023-03-04T01:32:58.169Z,58.53
2023-03-04T01:35:26.769Z,58.37
2023-03-04T01:37:55.218Z,58.59
2023-03-04T01:40:23.693Z,58.13
2023-03-04T01:42:53.680Z,58.16
2023-03-04T01:45:22.570Z,58.38
2023-03-04T01:47:51.904Z,58.10
2023-03-04T01:50:24.026Z,58.02
2023-03-04T01:52:52.584Z,58.31
2023-03-04T01:55:23.806Z,58.37
2023-03-04T01:57:54.214Z,58.78
2023-03-04T02:00:32.047Z,58.92
2023-03-04T02:03:02.671Z,58.88
2023-03-04T02:05:31.792Z,58.17
2023-03-04T02:08:01.737Z,58.57
2023-03-04T02:10:30.281Z,58.36
2023-03-04T02:13:00.854Z,58.51
2023-03-04T02:15:29.692Z,59.12
2023-03-04T02:17:58.340Z,58.04
2023-03-04T02:20:41.644Z,58.39
2023-03-04T02:23:16.380Z,58.17
2023-03-04T02:25:49.083Z,58.09
2023-03-04T02:28:19.190Z,58.17
2023-03-04T02:30:48.065Z,58.28
2023-03-04T02:33:19.894Z,57.96
2023-03-04T02:35:48.521Z,58.56
2023-03-04T02:38:16.987Z,58.61
2023-03-04T02:40:49.945Z,58.47
2023-03-04T02:43:19.757Z,58.14
2023-03-04T02:45:50.663Z,57.98
2023-03-04T02:48:22.510Z,58.44
2023-03-04T02:50:53.144Z,58.69
2023-03-04T02:53:23.076Z,58.64
2023-03-04T02:55:51.958Z,58.61
2023-03-04T02:58:24.454Z,58.04
2023-03-04T03:00:52.877Z,58.25
2023-03-04T03:03:21.447Z,58.02
2023-03-04T03:05:50.379Z,57.58
2023-03-04T03:08:20.117Z,57.84
2023-03-04T03:10:48.877Z,58.22
2023-03-04T03:13:19.386Z,57.96
2023-03-04T03:15:50.210Z,58.35
2023-03-04T03:18:19.005Z,58.42
2023-03-04T03:20:47.650Z,58.75
2023-03-04T03:23:18.178Z,59.14
2023-03-04T03:25:46.598Z,58.30
2023-03-04T03:28:15.000Z,58.82
2023-03-04T03:30:43.463Z,58.62
2023-03-04T03:33:13.264Z,58.19
2023-03-04T03:35:41.908Z,58.43
2023-03-04T03:38:10.315Z,58.15
2023-03-04T03:40:38.809Z,57.78
2023-03-04T03:43:07.140Z,57.90
2023-03-04T03:45:35.587Z,57.58
2023-03-04T03:48:03.974Z,57.63
2023-03-04T03:50:33.770Z,57.76
2023-03-04T03:53:02.440Z,57.15
2023-03-04T03:55:30.826Z,57.54
2023-03-04T03:57:59.286Z,57.04
2023-03-04T04:00:27.773Z,57.84
2023-03-04T04:02:57.963Z,57.31
2023-03-04T04:05:26.450Z,57.79
2023-03-04T04:07:56.302Z,57.41
2023-03-04T04:10:24.765Z,57.60
2023-03-04T04:12:53.389Z,57.51
2023-03-04T04:15:22.058Z,57.00
2023-03-04T04:17:50.485Z,56.75
2023-03-04T04:20:19.067Z,57.28
2023-03-04T04:22:47.397Z,56.97
2023-03-04T04:25:17.385Z,57.57
2023-03-04T04:27:45.759Z,57.10
2023-03-04T04:30:14.771Z,57.07
2023-03-04T04:32:43.295Z,57.12
2023-03-04T04:35:11.793Z,57.81
2023-03-04T04:37:40.286Z,58.00
2023-03-04T04:40:10.148Z,58.00
2023-03-04T04:42:40.075Z,57.67
2023-03-04T04:45:09.936Z,57.87
2023-03-04T04:47:38.446Z,57.57
2023-03-04T04:50:07.953Z,58.09
2023-03-04T04:52:36.449Z,57.66
2023-03-04T04:55:05.151Z,57.45
2023-03-04T04:57:34.859Z,57.83
2023-03-04T05:00:05.612Z,58.50
2023-03-04T05:02:36.567Z,58.24
2023-03-04T05:05:05.142Z,57.87
2023-03-04T05:07:33.522Z,57.58
2023-03-04T05:10:01.949Z,58.51
2023-03-04T05:12:31.460Z,57.37
2023-03-04T05:15:00.012Z,58.34
2023-03-04T05:17:29.872Z,58.19
2023-03-04T05:19:58.356Z,57.85
2023-03-04T05:22:26.820Z,58.53
2023-03-04T05:24:55.507Z,57.90
2023-03-04T05:27:23.932Z,58.41
2023-03-04T05:29:52.384Z,57.91
2023-03-04T05:32:20.730Z,57.63
2023-03-04T05:34:50.712Z,58.10
2023-03-04T05:37:19.108Z,57.56
2023-03-04T05:39:47.580Z,57.67
2023-03-04T05:42:16.020Z,57.12
2023-03-04T05:44:44.553Z,57.26
2023-03-04T05:47:13.018Z,57.08
2023-03-04T05:49:41.964Z,58.06
2023-03-04T05:52:11.915Z,57.77
2023-03-04T05:54:40.375Z,57.16
2023-03-04T05:57:08.889Z,57.86
2023-03-04T05:59:37.330Z,57.69
2023-03-04T06:02:05.700Z,57.96
2023-03-04T06:04:34.260Z,57.74
2023-03-04T06:07:02.616Z,58.62
2023-03-04T06:09:33.446Z,58.95
2023-03-04T06:12:01.897Z,58.86
2023-03-04T06:14:30.286Z,58.28
2023-03-04T06:16:58.897Z,58.04
2023-03-04T06:19:27.241Z,58.59
2023-03-04T06:21:55.621Z,58.88
2023-03-04T06:24:23.997Z,57.91
2023-03-04T06:26:53.826Z,57.83
2023-03-04T06:29:22.483Z,58.27
2023-03-04T06:31:51.004Z,58.62
2023-03-04T06:34:19.761Z,58.04
2023-03-04T06:36:48.283Z,59.00
2023-03-04T06:39:16.739Z,59.03
2023-03-04T06:41:46.349Z,59.37
2023-03-04T06:44:16.198Z,58.56
2023-03-04T06:46:45.764Z,59.69
2023-03-04T06:49:14.267Z,59.63
2023-03-04T06:51:42.674Z,59.08
2023-03-04T06:54:11.525Z,59.68
2023-03-04T06:56:39.870Z,59.06
2023-03-04T06:59:08.415Z,59.98
2023-03-04T07:01:38.269Z,59.09
2023-03-04T07:04:07.041Z,59.48
2023-03-04T07:06:35.502Z,59.54
2023-03-04T07:09:03.954Z,59.36
2023-03-04T07:11:33.425Z,59.04
2023-03-04T07:14:01.864Z,58.75
2023-03-04T07:16:30.375Z,58.12
2023-03-04T07:19:00.367Z,57.84
2023-03-04T07:21:28.970Z,57.74
2023-03-04T07:23:58.174Z,58.16
2023-03-04T07:26:26.618Z,58.25
2023-03-04T07:28:57.346Z,58.21
2023-03-04T07:31:30.085Z,58.10
2023-03-04T07:34:01.648Z,57.57
2023-03-04T07:36:30.970Z,57.86
2023-03-04T07:38:59.342Z,58.44
2023-03-04T07:41:30.040Z,57.52
2023-03-04T07:43:58.959Z,57.44
2023-03-04T07:46:27.538Z,57.31
2023-03-04T07:48:58.101Z,56.84
2023-03-04T07:51:29.423Z,55.82
2023-03-04T07:54:00.320Z,55.36
2023-03-04T07:56:31.410Z,54.94
2023-03-04T07:59:00.274Z,53.79
2023-03-04T08:01:30.918Z,52.42
2023-03-04T08:03:59.953Z,51.73
2023-03-04T08:06:30.131Z,50.19
2023-03-04T08:09:00.472Z,49.40
2023-03-04T08:11:30.544Z,49.07
2023-03-04T08:13:59.142Z,48.62
2023-03-04T08:16:28.624Z,48.29
2023-03-04T08:18:58.861Z,48.09
2023-03-04T08:21:30.024Z,47.87
2023-03-04T08:24:01.894Z,46.93
2023-03-04T08:26:34.030Z,46.40
2023-03-04T08:29:04.380Z,45.99
2023-03-04T08:31:33.645Z,46.19
2023-03-04T08:34:03.622Z,46.58
2023-03-04T08:36:33.542Z,46.38
2023-03-04T08:39:01.993Z,47.64
2023-03-04T08:41:30.542Z,46.98
2023-03-04T08:43:59.007Z,46.81
2023-03-04T08:46:27.547Z,46.30
2023-03-04T08:48:56.059Z,46.60
2023-03-04T08:51:25.141Z,46.46
2023-03-04T08:53:55.049Z,46.07
2023-03-04T08:56:23.859Z,46.56
2023-03-04T08:58:52.168Z,47.42
2023-03-04T09:01:20.673Z,47.67
2023-03-04T09:03:50.146Z,47.64
2023-03-04T09:06:19.550Z,46.49
2023-03-04T09:08:48.252Z,45.90
2023-03-04T09:11:18.144Z,43.68
2023-03-04T09:13:46.634Z,43.78
2023-03-04T09:16:16.122Z,43.42
2023-03-04T09:18:45.335Z,44.30
2023-03-04T09:21:14.889Z,44.53
2023-03-04T09:23:43.519Z,43.75
2023-03-04T09:26:22.454Z,43.11
2023-03-04T09:28:53.273Z,43.51
2023-03-04T09:31:22.457Z,44.43
2023-03-04T09:33:51.607Z,43.93
2023-03-04T09:36:20.501Z,43.46
2023-03-04T09:38:49.126Z,44.22
2023-03-04T09:41:20.244Z,43.46
2023-03-04T09:43:52.059Z,43.40
2023-03-04T09:46:29.868Z,42.83
2023-03-04T09:48:59.650Z,42.61
2023-03-04T09:51:43.302Z,42.60
2023-03-04T09:54:17.582Z,43.07
2023-03-04T09:56:46.033Z,43.38
2023-03-04T09:59:27.223Z,42.22
2023-03-04T10:01:58.063Z,42.19
2023-03-04T10:04:36.313Z,42.26
2023-03-04T10:07:06.491Z,42.14
2023-03-04T10:09:46.278Z,42.44
2023-03-04T10:12:18.690Z,42.81
2023-03-04T10:14:53.881Z,42.12
2023-03-04T10:17:26.194Z,42.47
2023-03-04T10:19:58.906Z,42.21
2023-03-04T10:22:36.111Z,42.83
2023-03-04T10:25:18.104Z,42.69
2023-03-04T10:27:52.703Z,42.14
2023-03-04T10:30:37.909Z,42.15
2023-03-04T10:33:13.209Z,42.88
2023-03-04T10:35:45.144Z,41.70
2023-03-04T10:38:15.041Z,42.04
2023-03-04T10:40:45.879Z,41.88
2023-03-04T10:43:19.355Z,41.82
2023-03-04T10:45:50.875Z,39.88
2023-03-04T10:48:24.426Z,41.08
2023-03-04T10:50:52.918Z,41.22
2023-03-04T10:53:29.761Z,40.16
2023-03-04T10:55:58.277Z,40.27
2023-03-04T10:58:26.707Z,39.59
2023-03-04T11:01:04.974Z,38.91
2023-03-04T11:03:36.624Z,39.86
2023-03-04T11:06:13.186Z,39.26
2023-03-04T11:08:42.448Z,37.71
2023-03-04T11:11:31.337Z,38.58
2023-03-04T11:14:03.330Z,38.72
2023-03-04T11:16:35.007Z,38.61
2023-03-04T11:19:07.741Z,37.61
2023-03-04T11:21:40.914Z,38.29
2023-03-04T11:24:27.514Z,37.88
2023-03-04T11:27:00.614Z,37.64
2023-03-04T11:29:35.493Z,37.46
2023-03-04T11:32:12.506Z,38.19
2023-03-04T11:34:46.631Z,37.71
2023-03-04T11:37:22.904Z,36.83
2023-03-04T11:39:55.878Z,36.43
2023-03-04T11:42:33.780Z,37.31
2023-03-04T11:45:02.382Z,36.77
2023-03-04T11:47:50.173Z,36.30
2023-03-04T11:50:29.090Z,36.16
2023-03-04T11:53:14.564Z,36.66
2023-03-04T11:55:47.782Z,36.96
2023-03-04T11:58:48.607Z,35.48
2023-03-04T12:01:23.359Z,36.08
2023-03-04T12:04:13.404Z,36.31
2023-03-04T12:06:52.339Z,35.91
2023-03-04T12:09:34.015Z,36.50
2023-03-04T12:12:20.764Z,36.39
2023-03-04T12:14:57.497Z,36.03
2023-03-04T12:17:45.482Z,36.78
2023-03-04T12:20:39.313Z,35.25
2023-03-04T12:23:20.516Z,36.12
2023-03-04T12:25:56.870Z,35.93
2023-03-04T12:28:53.249Z,36.04
2023-03-04T12:31:34.268Z,35.57
2023-03-04T12:34:30.278Z,35.72
2023-03-04T12:37:12.453Z,36.30
2023-03-04T12:39:46.612Z,34.50
2023-03-04T12:42:24.234Z,35.31
2023-03-04T12:45:07.366Z,35.87
2023-03-04T12:47:46.553Z,35.90
2023-03-04T12:50:33.348Z,36.08
2023-03-04T12:53:14.020Z,34.13
2023-03-04T12:55:45.563Z,35.21
2023-03-04T12:58:18.307Z,34.85
2023-03-04T13:00:56.702Z,35.41
2023-03-04T13:03:35.175Z,34.92
2023-03-04T13:06:14.970Z,35.07
2023-03-04T13:08:56.084Z,35.26
2023-03-04T13:11:55.910Z,35.47
2023-03-04T13:14:31.005Z,35.09
2023-03-04T13:17:02.014Z,35.07
2023-03-04T13:19:52.696Z,34.78
2023-03-04T13:22:47.265Z,34.95
2023-03-04T13:25:38.739Z,34.34
2023-03-04T13:28:32.183Z,34.27
2023-03-04T13:31:15.425Z,34.55
2023-03-04T13:33:56.648Z,34.65
2023-03-04T13:36:57.483Z,35.07
2023-03-04T13:39:29.781Z,35.63
2023-03-04T13:41:59.851Z,34.34
2023-03-04T13:44:53.973Z,35.10
2023-03-04T13:47:28.632Z,35.64
2023-03-04T13:50:25.580Z,34.16
2023-03-04T13:52:55.571Z,34.48
2023-03-04T13:55:36.275Z,34.60
2023-03-04T13:58:18.774Z,35.00
2023-03-04T14:00:51.310Z,34.94
2023-03-04T14:03:28.572Z,35.26
2023-03-04T14:06:20.546Z,33.99
2023-03-04T14:08:50.421Z,35.08
2023-03-04T14:11:31.646Z,34.88
2023-03-04T14:14:05.574Z,35.22
2023-03-04T14:16:39.573Z,34.82
2023-03-04T14:19:16.123Z,35.07
2023-03-04T14:21:47.361Z,34.41
2023-03-04T14:24:17.758Z,34.51
2023-03-04T14:26:46.304Z,35.58
2023-03-04T14:29:27.716Z,34.71
2023-03-04T14:31:56.924Z,34.99
2023-03-04T14:34:33.397Z,34.29
2023-03-04T14:37:03.403Z,34.81
2023-03-04T14:39:36.001Z,34.97
2023-03-04T14:42:10.441Z,34.84
2023-03-04T14:44:48.507Z,34.44
2023-03-04T14:47:21.321Z,34.82
2023-03-04T14:49:50.349Z,35.51
2023-03-04T14:52:39.642Z,35.45
2023-03-04T14:55:22.375Z,35.74
2023-03-04T14:57:58.541Z,35.85
2023-03-04T15:00:31.916Z,34.82
2023-03-04T15:03:02.756Z,35.18
2023-03-04T15:05:33.203Z,35.32
2023-03-04T15:08:04.096Z,35.43
2023-03-04T15:10:35.168Z,35.21
2023-03-04T15:13:05.469Z,34.99
2023-03-04T15:15:42.661Z,35.34
2023-03-04T15:18:26.376Z,35.74
2023-03-04T15:20:59.914Z,35.93
2023-03-04T15:23:29.596Z,35.50
2023-03-04T15:26:00.039Z,35.68
2023-03-04T15:28:31.668Z,36.03
2023-03-04T15:31:01.514Z,36.45
2023-03-04T15:33:30.046Z,36.33
2023-03-04T15:36:00.463Z,36.35
2023-03-04T15:38:29.800Z,36.23
2023-03-04T15:40:59.767Z,35.73
2023-03-04T15:43:28.371Z,36.26
2023-03-04T15:45:56.893Z,36.16
2023-03-04T15:48:26.724Z,36.57
2023-03-04T15:50:58.282Z,36.46
2023-03-04T15:53:32.821Z,36.55
2023-03-04T15:56:02.261Z,36.65
2023-03-04T15:58:33.818Z,36.04
2023-03-04T16:01:03.618Z,36.18
2023-03-04T16:03:33.932Z,36.44
2023-03-04T16:06:02.486Z,36.57
2023-03-04T16:08:30.834Z,36.81
2023-03-04T16:10:59.412Z,36.80
2023-03-04T16:13:27.813Z,36.81
2023-03-04T16:15:56.362Z,37.57
2023-03-04T16:18:25.078Z,37.36
2023-03-04T16:20:54.954Z,37.28
2023-03-04T16:23:26.058Z,37.21
2023-03-04T16:25:57.929Z,38.11
2023-03-04T16:28:26.423Z,37.52
2023-03-04T16:30:54.862Z,37.68
2023-03-04T16:33:23.218Z,37.98
2023-03-04T16:35:52.515Z,38.37
2023-03-04T16:38:27.154Z,38.26
2023-03-04T16:40:57.117Z,38.36
2023-03-04T16:43:25.965Z,38.47
2023-03-04T16:45:54.445Z,38.60
2023-03-04T16:48:22.796Z,38.22
2023-03-04T16:50:51.516Z,38.37
2023-03-04T16:53:29.314Z,38.77
2023-03-04T16:56:00.028Z,38.86
2023-03-04T16:58:28.741Z,39.07
2023-03-04T17:00:57.220Z,39.43
2023-03-04T17:03:25.722Z,39.40
2023-03-04T17:05:54.046Z,39.45
2023-03-04T17:08:22.397Z,39.95
2023-03-04T17:10:52.618Z,40.00
2023-03-04T17:13:21.019Z,40.00
2023-03-04T17:15:49.564Z,40.52
2023-03-04T17:18:18.040Z,40.26
2023-03-04T17:20:46.546Z,40.77
2023-03-04T17:23:14.949Z,40.80
2023-03-04T17:25:43.324Z,41.57
2023-03-04T17:28:13.228Z,41.64
2023-03-04T17:30:41.589Z,41.92
2023-03-04T17:33:10.039Z,42.21
2023-03-04T17:35:40.974Z,42.21
2023-03-04T17:38:09.574Z,42.26
2023-03-04T17:40:38.049Z,42.48
2023-03-04T17:43:11.561Z,42.69
2023-03-04T17:45:42.008Z,42.78
2023-03-04T17:48:15.079Z,42.57
2023-03-04T17:50:50.163Z,42.22
2023-03-04T17:53:18.895Z,42.52
2023-03-04T17:55:51.060Z,42.38
2023-03-04T17:58:19.985Z,42.60
2023-03-04T18:00:50.960Z,42.83
2023-03-04T18:03:20.581Z,42.66
2023-03-04T18:05:48.854Z,42.74
2023-03-04T18:08:17.218Z,42.77
2023-03-04T18:10:45.590Z,42.75
2023-03-04T18:13:13.986Z,43.17
2023-03-04T18:15:42.398Z,42.96
2023-03-04T18:18:12.235Z,42.86
2023-03-04T18:20:40.737Z,42.73
2023-03-04T18:23:09.226Z,42.71
2023-03-04T18:25:37.756Z,42.62
2023-03-04T18:28:06.483Z,42.33
2023-03-04T18:30:34.914Z,42.83
2023-03-04T18:33:04.202Z,41.17
2023-03-04T18:35:34.121Z,42.01
2023-03-04T18:38:02.571Z,42.49
2023-03-04T18:40:31.888Z,42.45
2023-03-04T18:43:00.273Z,42.34
2023-03-04T18:45:28.991Z,42.33
2023-03-04T18:47:58.315Z,42.40
2023-03-04T18:50:26.888Z,42.36
2023-03-04T18:52:56.728Z,42.13
2023-03-04T18:55:25.508Z,42.02
2023-03-04T18:57:58.174Z,41.86
2023-03-04T19:00:26.957Z,41.94
2023-03-04T19:03:00.047Z,42.12
2023-03-04T19:05:32.921Z,41.96
2023-03-04T19:08:02.785Z,42.30
2023-03-04T19:10:31.279Z,42.27
2023-03-04T19:12:59.810Z,42.30
2023-03-04T19:15:28.322Z,42.21
2023-03-04T19:17:56.738Z,42.34
2023-03-04T19:20:25.239Z,42.24
2023-03-04T19:22:53.671Z,42.42
2023-03-04T19:25:23.581Z,42.38
2023-03-04T19:27:55.506Z,42.34
2023-03-04T19:30:24.051Z,42.86
2023-03-04T19:32:52.462Z,42.30
2023-03-04T19:35:20.836Z,42.55
2023-03-04T19:37:49.385Z,42.81
2023-03-04T19:40:17.957Z,42.79
2023-03-04T19:42:47.727Z,42.83
2023-03-04T19:45:16.319Z,42.59
2023-03-04T19:47:44.686Z,42.89
2023-03-04T19:50:14.255Z,42.52
2023-03-04T19:52:43.399Z,42.63
2023-03-04T19:55:13.931Z,42.65
2023-03-04T19:57:43.452Z,42.67
2023-03-04T20:00:15.476Z,42.77
2023-03-04T20:02:45.702Z,42.60
2023-03-04T20:05:14.111Z,42.63
2023-03-04T20:07:43.995Z,43.25
2023-03-04T20:10:14.485Z,42.75
2023-03-04T20:12:43.043Z,42.78
2023-03-04T20:15:13.580Z,42.86
2023-03-04T20:17:42.113Z,42.92
2023-03-04T20:20:12.603Z,43.29
2023-03-04T20:22:41.109Z,42.95
2023-03-04T20:25:10.094Z,42.91
2023-03-04T20:27:38.555Z,43.06
2023-03-04T20:30:07.868Z,43.08
2023-03-04T20:32:37.724Z,43.10
2023-03-04T20:35:06.887Z,43.31
2023-03-04T20:37:36.236Z,43.51
2023-03-04T20:40:04.863Z,43.64
2023-03-04T20:42:34.058Z,43.87
2023-03-04T20:45:02.444Z,44.71
2023-03-04T20:47:31.365Z,44.32
2023-03-04T20:50:01.128Z,44.13
2023-03-04T20:52:29.485Z,45.23
2023-03-04T20:54:57.975Z,44.75
2023-03-04T20:57:26.392Z,45.01
2023-03-04T20:59:54.999Z,45.11
2023-03-04T21:02:23.625Z,45.98
2023-03-04T21:04:52.249Z,46.44
2023-03-04T21:07:22.026Z,46.02
2023-03-04T21:09:50.425Z,46.47
2023-03-04T21:12:18.910Z,46.22
2023-03-04T21:14:47.874Z,46.91
2023-03-04T21:17:16.732Z,46.21
2023-03-04T21:19:46.820Z,46.52
2023-03-04T21:22:17.201Z,46.64
2023-03-04T21:24:48.060Z,47.56
2023-03-04T21:27:16.979Z,47.61
2023-03-04T21:29:46.494Z,48.68
2023-03-04T21:32:24.143Z,48.49
2023-03-04T21:34:54.026Z,48.95
2023-03-04T21:37:23.864Z,48.68
2023-03-04T21:39:54.415Z,47.59
2023-03-04T21:42:22.975Z,47.07
2023-03-04T21:44:52.057Z,48.22
2023-03-04T21:47:21.172Z,48.02
2023-03-04T21:49:50.043Z,47.66
2023-03-04T21:52:19.252Z,47.93
2023-03-04T21:54:48.351Z,47.06
2023-03-04T21:57:18.596Z,47.15
2023-03-04T21:59:47.516Z,46.41
2023-03-04T22:02:17.560Z,46.06
2023-03-04T22:04:46.500Z,46.40
2023-03-04T22:07:15.479Z,45.88
2023-03-04T22:09:43.940Z,45.52
2023-03-04T22:12:12.905Z,46.85
2023-03-04T22:14:42.754Z,46.75
2023-03-04T22:17:11.195Z,46.57
2023-03-04T22:19:39.570Z,46.15
2023-03-04T22:22:08.029Z,46.56
2023-03-04T22:24:36.375Z,46.77
2023-03-04T22:27:04.897Z,46.47
2023-03-04T22:29:33.310Z,46.97
2023-03-04T22:32:03.228Z,47.45
2023-03-04T22:34:31.768Z,47.04
2023-03-04T22:37:00.211Z,47.04
2023-03-04T22:39:28.784Z,47.15
2023-03-04T22:41:57.245Z,46.89
2023-03-04T22:44:25.700Z,46.26
2023-03-04T22:46:54.123Z,46.23
2023-03-04T22:49:23.912Z,47.20
2023-03-04T22:51:52.272Z,46.50
2023-03-04T22:54:21.063Z,47.10
2023-03-04T22:56:49.534Z,47.30
2023-03-04T22:59:17.986Z,47.10
2023-03-04T23:01:46.361Z,46.92
2023-03-04T23:04:14.837Z,47.75
2023-03-04T23:06:44.716Z,47.75
2023-03-04T23:09:13.187Z,47.00
2023-03-04T23:11:41.613Z,47.14
2023-03-04T23:14:11.987Z,47.85
2023-03-04T23:16:43.407Z,47.60
2023-03-04T23:19:13.841Z,47.89
2023-03-04T23:21:42.799Z,48.92
2023-03-04T23:24:14.068Z,48.51
2023-03-04T23:26:43.584Z,48.15
2023-03-04T23:29:15.851Z,48.56
2023-03-04T23:31:44.799Z,49.01
2023-03-04T23:34:13.321Z,48.24
2023-03-04T23:36:43.270Z,49.22
2023-03-04T23:39:14.350Z,48.75
2023-03-04T23:41:43.988Z,48.63
2023-03-04T23:44:13.197Z,49.00
2023-03-04T23:46:42.161Z,49.01
2023-03-04T23:49:14.173Z,48.53
2023-03-04T23:51:44.458Z,48.09
2023-03-04T23:54:15.061Z,48.69
2023-03-04T23:56:43.537Z,48.50
2023-03-04T23:59:12.364Z,48.92
